Time;durP1;ratioP1;P1;durP2;ratioP2;P2;SDS_P1;SDS_P2;PMS_P1;PMS_P2;Temp;Humidity;BMP_temperature;BMP_pressure;BME280_temperature;BME280_humidity;BME280_pressure;Samples;Min_cycle;Max_cycle;Signal;HPM_P1;HPM_P2
2023/04/11 00:01:01;;;;;;;1.80;1.70;;;14.80;90.50;;;;;;6025397;23;20452;-75
2023/04/11 00:03:31;;;;;;;2.40;1.57;;;14.80;90.80;;;;;;6016955;23;20462;-74
2023/04/11 00:05:58;;;;;;;2.30;1.80;;;14.80;91.00;;;;;;6025760;23;20506;-75
2023/04/11 00:08:27;;;;;;;2.47;1.80;;;14.80;91.10;;;;;;6020458;23;20450;-75
2023/04/11 00:10:54;;;;;;;1.87;1.53;;;14.80;91.40;;;;;;6017492;23;20555;-75
2023/04/11 00:13:22;;;;;;;2.00;1.80;;;14.70;91.40;;;;;;6028708;23;20463;-75
2023/04/11 00:15:54;;;;;;;5.63;1.73;;;14.80;91.50;;;;;;6017923;23;20518;-74
2023/04/11 00:18:21;;;;;;;3.20;2.10;;;14.70;91.60;;;;;;6022563;23;20897;-75
2023/04/11 00:20:48;;;;;;;2.40;1.90;;;14.70;91.90;;;;;;6023123;23;20455;-75
2023/04/11 00:23:15;;;;;;;3.67;1.67;;;14.70;91.90;;;;;;6032113;23;20473;-75
2023/04/11 00:25:44;;;;;;;2.50;1.63;;;14.40;91.90;;;;;;6019933;23;20428;-75
2023/04/11 00:28:11;;;;;;;2.13;1.70;;;14.70;92.00;;;;;;6015541;23;20448;-75
2023/04/11 00:30:38;;;;;;;2.40;1.77;;;14.70;92.10;;;;;;6015951;23;20486;-75
2023/04/11 00:33:05;;;;;;;1.70;1.60;;;14.70;92.30;;;;;;6024039;23;20490;-75
2023/04/11 00:35:33;;;;;;;2.73;1.80;;;14.70;92.30;;;;;;6022302;23;20848;-75
2023/04/11 00:38:02;;;;;;;2.20;2.00;;;14.70;92.40;;;;;;6018666;23;20505;-75
2023/04/11 00:40:30;;;;;;;2.30;1.70;;;14.70;92.50;;;;;;6020376;23;20490;-74
2023/04/11 00:42:58;;;;;;;1.90;1.80;;;14.70;92.60;;;;;;6032090;23;20488;-75
2023/04/11 00:45:26;;;;;;;2.23;1.90;;;14.70;92.50;;;;;;6029963;23;20452;-75
2023/04/11 00:47:53;;;;;;;2.43;2.07;;;14.70;93.00;;;;;;6022791;23;20796;-75
2023/04/11 00:50:23;;;;;;;2.00;1.80;;;14.70;92.60;;;;;;6023248;23;20479;-75
2023/04/11 00:52:53;;;;;;;3.67;1.57;;;14.70;92.60;;;;;;6008912;23;20555;-75
2023/04/11 00:55:20;;;;;;;3.40;1.80;;;14.70;92.80;;;;;;6024265;23;20503;-75
2023/04/11 00:57:47;;;;;;;2.73;1.80;;;14.80;92.70;;;;;;6025248;23;20484;-73
2023/04/11 01:00:17;;;;;;;1.60;1.50;;;14.80;92.60;;;;;;6025464;23;20471;-73
2023/04/11 01:02:45;;;;;;;1.80;1.70;;;14.80;92.80;;;;;;6023848;23;20487;-73
2023/04/11 01:05:13;;;;;;;1.67;1.57;;;14.80;92.90;;;;;;6022210;23;20873;-73
2023/04/11 01:07:44;;;;;;;1.60;1.50;;;14.90;93.20;;;;;;6021753;23;20443;-75
2023/04/11 01:10:12;;;;;;;2.10;1.70;;;14.70;93.30;;;;;;6021611;23;20438;-74
2023/04/11 01:12:40;;;;;;;2.60;1.40;;;14.70;93.20;;;;;;6029934;23;20915;-74
2023/04/11 01:15:08;;;;;;;1.80;1.70;;;14.80;93.90;;;;;;6026747;23;20448;-74
2023/04/11 01:17:36;;;;;;;2.20;1.53;;;14.60;94.60;;;;;;6027390;23;20470;-74
2023/04/11 01:20:06;;;;;;;1.87;1.77;;;14.40;95.60;;;;;;6023841;23;20526;-73
2023/04/11 01:22:34;;;;;;;1.80;1.60;;;14.30;96.70;;;;;;6024631;23;20469;-73
2023/04/11 01:25:03;;;;;;;2.70;1.80;;;14.10;97.30;;;;;;6021491;23;20908;-73
2023/04/11 01:27:32;;;;;;;3.40;1.87;;;14.00;98.20;;;;;;6013812;23;20448;-73
2023/04/11 01:29:59;;;;;;;2.57;2.00;;;13.90;99.10;;;;;;6026823;23;20514;-73
2023/04/11 01:32:26;;;;;;;2.10;1.77;;;13.90;99.90;;;;;;6020602;23;20971;-73
2023/04/11 01:34:55;;;;;;;1.70;1.60;;;14.00;99.90;;;;;;6024029;23;20468;-73
2023/04/11 01:37:23;;;;;;;2.27;1.90;;;13.70;99.90;;;;;;6020842;23;20570;-73
2023/04/11 01:39:50;;;;;;;2.30;2.10;;;13.50;99.90;;;;;;6024592;23;20836;-73
2023/04/11 01:42:19;;;;;;;2.33;1.70;;;13.40;99.90;;;;;;6027685;23;20461;-73
2023/04/11 01:44:46;;;;;;;2.53;1.73;;;13.30;99.90;;;;;;6023261;23;20963;-73
2023/04/11 01:47:13;;;;;;;2.03;1.92;;;13.10;99.90;;;;;;6014608;23;20536;-73
2023/04/11 01:49:41;;;;;;;2.33;2.13;;;13.10;99.90;;;;;;6023604;23;20240;-73
2023/04/11 01:52:09;;;;;;;2.13;1.93;;;13.00;99.90;;;;;;6030440;23;20539;-74
2023/04/11 01:54:36;;;;;;;2.60;2.40;;;12.90;99.90;;;;;;6026472;23;20475;-74
2023/04/11 01:57:04;;;;;;;3.37;2.53;;;12.70;99.90;;;;;;6018410;23;20552;-74
2023/04/11 01:59:32;;;;;;;3.20;2.93;;;12.60;99.90;;;;;;6028088;23;20549;-74
2023/04/11 02:01:59;;;;;;;3.33;3.03;;;12.50;99.90;;;;;;6029971;23;20465;-74
2023/04/11 02:04:26;;;;;;;4.32;3.08;;;12.40;99.90;;;;;;6022999;23;20194;-74
2023/04/11 02:06:53;;;;;;;3.10;2.80;;;12.30;99.90;;;;;;6022430;23;20253;-74
2023/04/11 02:09:21;;;;;;;4.70;3.57;;;12.20;99.90;;;;;;6034195;23;20224;-74
2023/04/11 02:11:48;;;;;;;2.60;2.40;;;12.10;99.90;;;;;;6025286;23;20541;-74
2023/04/11 02:14:17;;;;;;;3.13;2.50;;;12.00;99.90;;;;;;6019399;23;20461;-74
2023/04/11 02:16:55;;;;;;;2.88;2.67;;;11.90;99.90;;;;;;6031272;23;20535;-74
2023/04/11 02:19:24;;;;;;;2.60;2.40;;;11.80;99.90;;;;;;6012687;23;20197;-74
2023/04/11 02:21:51;;;;;;;2.95;2.75;;;11.70;99.90;;;;;;6012023;23;20209;-74
2023/04/11 02:24:18;;;;;;;2.85;2.58;;;11.60;99.90;;;;;;6021070;23;20224;-74
2023/04/11 02:26:45;;;;;;;2.53;2.33;;;11.60;99.90;;;;;;6021830;23;20197;-74
2023/04/11 02:29:12;;;;;;;2.40;2.20;;;11.50;99.90;;;;;;6020882;23;20277;-74
2023/04/11 02:31:39;;;;;;;2.40;2.20;;;11.50;99.90;;;;;;6028914;23;20201;-74
2023/04/11 02:34:08;;;;;;;2.17;1.92;;;11.40;99.90;;;;;;6025360;23;20276;-74
2023/04/11 02:36:35;;;;;;;3.72;2.40;;;11.30;99.90;;;;;;6034650;23;20288;-74
2023/04/11 02:39:02;;;;;;;2.10;1.90;;;11.30;99.90;;;;;;6017573;23;20301;-74
2023/04/11 02:41:29;;;;;;;2.33;2.15;;;11.20;99.90;;;;;;6024796;23;20189;-74
2023/04/11 02:43:56;;;;;;;2.90;2.70;;;11.10;99.90;;;;;;6025436;23;20196;-74
2023/04/11 02:46:23;;;;;;;2.83;2.53;;;11.00;99.90;;;;;;6023744;23;20375;-74
2023/04/11 02:48:50;;;;;;;2.00;1.90;;;11.00;99.90;;;;;;6026768;23;20201;-74
2023/04/11 02:51:18;;;;;;;2.00;1.80;;;11.00;99.90;;;;;;6027879;23;20603;-74
2023/04/11 02:53:45;;;;;;;2.72;2.40;;;11.00;99.90;;;;;;6032912;23;20267;-74
2023/04/11 02:56:17;;;;;;;2.75;1.70;;;10.90;99.90;;;;;;6016707;23;20300;-74
2023/04/11 02:58:47;;;;;;;1.75;1.48;;;10.80;99.90;;;;;;6027944;23;20712;-74
2023/04/11 03:01:17;;;;;;;1.60;1.50;;;10.80;99.90;;;;;;6022823;23;20208;-75
2023/04/11 03:03:44;;;;;;;2.85;1.38;;;10.70;99.90;;;;;;6030453;23;20267;-74
2023/04/11 03:06:15;;;;;;;2.05;1.05;;;10.60;99.90;;;;;;6017130;23;20194;-74
2023/04/11 03:08:43;;;;;;;1.80;1.20;;;10.60;99.90;;;;;;6028934;23;20276;-75
2023/04/11 03:11:10;;;;;;;1.75;1.35;;;10.70;99.90;;;;;;6023990;23;20255;-74
2023/04/11 03:13:38;;;;;;;1.60;1.25;;;10.50;99.90;;;;;;6023618;23;20754;-74
2023/04/11 03:16:06;;;;;;;2.60;1.50;;;10.40;99.90;;;;;;6012815;23;20222;-74
2023/04/11 03:18:33;;;;;;;3.05;1.60;;;10.30;99.90;;;;;;6028031;23;20681;-74
2023/04/11 03:21:01;;;;;;;2.03;1.75;;;10.20;99.90;;;;;;6017139;23;20200;-74
2023/04/11 03:23:28;;;;;;;1.30;1.20;;;10.10;99.90;;;;;;6016108;23;20312;-73
2023/04/11 03:25:57;;;;;;;1.65;1.40;;;10.00;99.90;;;;;;6017607;23;20201;-74
2023/04/11 03:28:24;;;;;;;2.13;1.73;;;10.00;99.90;;;;;;6028337;23;20672;-73
2023/04/11 03:30:51;;;;;;;2.78;1.38;;;10.00;99.90;;;;;;6027074;23;20221;-74
2023/04/11 03:33:18;;;;;;;4.65;1.70;;;9.90;99.90;;;;;;6023566;23;20670;-74
2023/04/11 03:35:45;;;;;;;3.08;1.33;;;9.80;99.90;;;;;;6020756;23;20641;-74
2023/04/11 03:38:12;;;;;;;2.85;1.30;;;9.70;99.90;;;;;;6025410;23;20248;-73
2023/04/11 03:40:40;;;;;;;2.35;1.38;;;9.70;99.90;;;;;;6029840;23;20700;-73
2023/04/11 03:43:08;;;;;;;4.60;1.40;;;9.70;99.90;;;;;;6015592;23;20253;-74
2023/04/11 03:45:35;;;;;;;4.28;1.33;;;9.70;99.90;;;;;;6019237;23;20204;-74
2023/04/11 03:48:02;;;;;;;2.55;1.30;;;9.70;99.90;;;;;;6024808;23;20307;-74
2023/04/11 03:50:29;;;;;;;2.47;1.17;;;9.60;99.90;;;;;;6027405;23;20277;-74
2023/04/11 03:52:56;;;;;;;1.95;1.55;;;9.60;99.90;;;;;;6037901;23;20295;-74
2023/04/11 03:55:24;;;;;;;3.00;1.50;;;9.60;99.90;;;;;;6025177;23;20239;-74
2023/04/11 03:57:51;;;;;;;2.83;1.33;;;9.60;99.90;;;;;;6020491;23;20221;-73
2023/04/11 04:00:20;;;;;;;1.42;1.10;;;9.60;99.90;;;;;;6029048;23;20250;-73
2023/04/11 04:02:47;;;;;;;3.47;1.23;;;9.50;99.90;;;;;;6024383;23;21038;-73
2023/04/11 04:05:14;;;;;;;2.45;1.20;;;9.50;99.90;;;;;;6027755;23;20254;-73
2023/04/11 04:07:41;;;;;;;1.95;1.55;;;9.50;99.90;;;;;;6026401;23;20214;-74
2023/04/11 04:10:09;;;;;;;3.13;1.55;;;9.50;99.90;;;;;;6027332;23;20636;-74
2023/04/11 04:12:36;;;;;;;3.10;1.25;;;9.50;99.90;;;;;;6016797;23;20769;-73
2023/04/11 04:15:03;;;;;;;3.65;1.42;;;9.40;99.90;;;;;;6030998;23;20239;-74
2023/04/11 04:17:32;;;;;;;2.88;1.40;;;9.40;99.90;;;;;;6024441;23;20198;-74
2023/04/11 04:19:59;;;;;;;2.97;1.60;;;9.60;99.90;;;;;;6014404;23;20217;-73
2023/04/11 04:22:26;;;;;;;2.75;1.88;;;9.40;99.90;;;;;;6022937;23;20288;-73
2023/04/11 04:24:56;;;;;;;4.70;1.55;;;9.40;99.90;;;;;;6016695;23;20204;-74
2023/04/11 04:27:24;;;;;;;6.00;1.48;;;9.30;99.90;;;;;;6020171;23;21544;-73
2023/04/11 04:29:51;;;;;;;3.58;1.80;;;9.30;99.90;;;;;;6023026;23;20874;-74
2023/04/11 04:32:21;;;;;;;2.78;1.30;;;9.30;99.90;;;;;;6022080;23;21480;-73
2023/04/11 04:34:53;;;;;;;3.83;1.50;;;9.30;99.90;;;;;;6021559;23;20193;-76
2023/04/11 04:37:22;;;;;;;2.08;1.50;;;9.40;99.90;;;;;;6028467;23;20263;-73
2023/04/11 04:39:53;;;;;;;1.30;1.10;;;9.40;99.90;;;;;;6029632;23;20735;-74
2023/04/11 04:42:22;;;;;;;5.60;1.90;;;9.40;99.90;;;;;;6028483;23;20263;-74
2023/04/11 04:44:49;;;;;;;1.95;1.70;;;9.40;99.90;;;;;;6033211;23;20208;-74
2023/04/11 04:47:16;;;;;;;2.78;1.40;;;9.40;99.90;;;;;;6028131;23;20307;-72
2023/04/11 04:49:44;;;;;;;2.35;1.30;;;9.40;99.90;;;;;;6023666;23;20248;-73
2023/04/11 04:52:13;;;;;;;2.75;1.48;;;9.30;99.90;;;;;;6027012;23;20213;-72
2023/04/11 04:54:40;;;;;;;2.28;1.27;;;9.30;99.90;;;;;;6018321;23;20201;-73
2023/04/11 04:57:08;;;;;;;3.95;1.30;;;9.40;99.90;;;;;;6018559;23;20240;-76
2023/04/11 04:59:36;;;;;;;4.22;1.55;;;9.20;99.90;;;;;;6016635;23;20220;-73
2023/04/11 05:02:03;;;;;;;2.92;1.23;;;9.20;99.90;;;;;;6027641;23;20304;-72
2023/04/11 05:04:32;;;;;;;2.45;1.52;;;9.20;99.90;;;;;;6024338;23;20264;-72
2023/04/11 05:07:00;;;;;;;2.53;1.10;;;9.20;99.90;;;;;;6018074;23;20201;-73
2023/04/11 05:09:29;;;;;;;3.53;2.00;;;9.10;99.90;;;;;;6017881;23;20240;-73
2023/04/11 05:11:56;;;;;;;2.70;1.20;;;9.10;99.90;;;;;;6029189;23;20296;-74
2023/04/11 05:14:23;;;;;;;2.00;1.15;;;9.10;99.90;;;;;;6030920;23;20220;-72
2023/04/11 05:16:51;;;;;;;2.65;1.30;;;9.00;99.90;;;;;;6020193;23;20216;-73
2023/04/11 05:19:18;;;;;;;1.20;0.90;;;9.00;99.90;;;;;;6012384;23;20209;-73
2023/04/11 05:21:45;;;;;;;1.75;0.90;;;8.90;99.90;;;;;;6025171;23;20209;-72
2023/04/11 05:24:12;;;;;;;2.95;1.30;;;8.80;99.90;;;;;;6023384;23;20195;-76
2023/04/11 05:26:41;;;;;;;2.25;1.00;;;8.80;99.90;;;;;;6027862;23;20184;-67
2023/04/11 05:29:08;;;;;;;1.45;1.00;;;8.80;99.90;;;;;;6029443;23;20201;-68
2023/04/11 05:31:36;;;;;;;1.40;1.20;;;8.80;99.90;;;;;;6036212;23;20220;-68
2023/04/11 05:34:03;;;;;;;1.00;0.90;;;8.80;99.90;;;;;;6030202;23;20200;-69
2023/04/11 05:36:31;;;;;;;1.95;1.15;;;8.80;99.90;;;;;;6028915;23;20188;-69
2023/04/11 05:38:58;;;;;;;2.83;1.33;;;8.70;99.90;;;;;;6027633;23;20745;-67
2023/04/11 05:41:25;;;;;;;3.35;1.10;;;8.70;99.90;;;;;;6033604;23;20226;-67
2023/04/11 05:43:53;;;;;;;1.55;1.00;;;8.60;99.90;;;;;;6030350;23;20305;-69
2023/04/11 05:46:20;;;;;;;1.80;0.80;;;8.60;99.90;;;;;;6025538;23;20303;-68
2023/04/11 05:48:47;;;;;;;2.75;0.90;;;8.60;99.90;;;;;;6024990;23;20714;-68
2023/04/11 05:51:14;;;;;;;1.25;0.93;;;8.50;99.90;;;;;;6030783;23;20270;-68
2023/04/11 05:53:42;;;;;;;2.22;1.20;;;8.40;99.90;;;;;;6032055;23;20216;-69
2023/04/11 05:56:11;;;;;;;1.75;0.90;;;8.50;99.90;;;;;;6028489;23;20206;-68
2023/04/11 05:58:39;;;;;;;2.20;1.05;;;8.50;99.90;;;;;;6036084;23;20215;-84
2023/04/11 06:01:11;;;;;;;1.15;0.80;;;8.50;99.90;;;;;;6033732;23;20188;-70
2023/04/11 06:03:38;;;;;;;1.90;1.25;;;8.60;99.90;;;;;;6021634;23;20271;-71
2023/04/11 06:06:06;;;;;;;1.88;1.20;;;8.50;99.90;;;;;;6025238;23;20919;-71
2023/04/11 06:08:34;;;;;;;2.88;1.10;;;8.60;99.90;;;;;;6021575;23;20193;-70
2023/04/11 06:11:01;;;;;;;2.08;0.90;;;8.60;99.90;;;;;;6009272;23;20279;-71
2023/04/11 06:13:28;;;;;;;1.67;1.20;;;8.60;99.90;;;;;;6023771;23;20258;-70
2023/04/11 06:15:55;;;;;;;1.85;1.15;;;8.60;99.90;;;;;;6024330;23;20268;-71
2023/04/11 06:18:24;;;;;;;1.83;1.17;;;8.70;99.90;;;;;;6026976;23;20220;-71
2023/04/11 06:20:51;;;;;;;2.95;1.00;;;8.70;99.90;;;;;;6029257;23;20219;-71
2023/04/11 06:23:18;;;;;;;2.85;1.00;;;8.70;99.90;;;;;;6026847;23;20275;-71
2023/04/11 06:25:45;;;;;;;1.88;0.98;;;8.70;99.90;;;;;;6020997;23;20263;-71
2023/04/11 06:28:12;;;;;;;1.58;0.90;;;8.80;99.90;;;;;;6019185;23;20207;-71
2023/04/11 06:30:39;;;;;;;2.63;1.00;;;8.80;99.90;;;;;;6020256;23;21046;-70
2023/04/11 06:33:07;;;;;;;2.83;1.20;;;8.80;99.90;;;;;;6022303;23;20204;-70
2023/04/11 06:35:36;;;;;;;1.98;1.02;;;8.90;99.90;;;;;;6018286;23;20200;-71
2023/04/11 06:38:04;;;;;;;1.85;0.95;;;8.90;99.90;;;;;;6021135;23;21778;-71
2023/04/11 06:40:31;;;;;;;1.30;1.02;;;9.00;99.90;;;;;;6017680;23;20204;-70
2023/04/11 06:43:00;;;;;;;1.52;1.13;;;9.00;99.90;;;;;;6023406;23;20619;-71
2023/04/11 06:45:27;;;;;;;3.63;1.30;;;9.10;99.90;;;;;;6019310;23;20201;-70
2023/04/11 06:47:54;;;;;;;2.65;1.27;;;9.10;99.90;;;;;;6028471;23;20735;-70
2023/04/11 06:50:21;;;;;;;2.47;1.02;;;9.10;99.90;;;;;;6025608;23;20186;-70
2023/04/11 06:52:50;;;;;;;3.40;1.30;;;9.10;99.90;;;;;;6023299;23;20304;-71
2023/04/11 06:55:17;;;;;;;1.75;0.90;;;9.10;99.90;;;;;;6026585;23;20188;-71
2023/04/11 06:57:45;;;;;;;2.25;1.13;;;9.00;99.90;;;;;;6022371;23;20272;-70
2023/04/11 07:00:13;;;;;;;1.83;1.08;;;9.00;99.90;;;;;;6028176;23;20252;-70
2023/04/11 07:02:40;;;;;;;1.77;1.17;;;9.00;99.90;;;;;;6024569;23;20205;-71
2023/04/11 07:05:09;;;;;;;4.10;1.33;;;9.00;99.90;;;;;;6029019;23;20189;-70
2023/04/11 07:07:36;;;;;;;9.05;1.92;;;9.10;99.90;;;;;;6020246;23;20217;-70
2023/04/11 07:10:06;;;;;;;4.00;1.45;;;9.10;99.90;;;;;;6028320;23;20267;-72
2023/04/11 07:12:33;;;;;;;2.70;1.23;;;9.10;99.90;;;;;;6020969;23;20222;-70
2023/04/11 07:15:00;;;;;;;4.15;1.35;;;9.20;99.90;;;;;;6026387;23;20669;-71
2023/04/11 07:17:27;;;;;;;2.20;1.00;;;9.20;99.90;;;;;;6023584;23;20185;-71
2023/04/11 07:19:54;;;;;;;5.90;1.50;;;9.30;99.90;;;;;;6015546;23;20327;-70
2023/04/11 07:22:22;;;;;;;2.88;1.38;;;9.20;99.90;;;;;;6022963;23;20284;-70
2023/04/11 07:24:51;;;;;;;3.85;1.27;;;9.20;99.90;;;;;;6020519;23;20192;-70
2023/04/11 07:27:22;;;;;;;1.65;1.30;;;9.30;99.90;;;;;;6017555;23;20198;-69
2023/04/11 07:29:49;;;;;;;4.80;1.40;;;9.50;99.90;;;;;;6025851;23;20786;-70
2023/04/11 07:32:16;;;;;;;5.13;1.67;;;9.30;99.90;;;;;;6021655;23;20216;-70
2023/04/11 07:34:43;;;;;;;2.25;1.00;;;9.30;99.90;;;;;;6007209;23;20189;-70
2023/04/11 07:37:11;;;;;;;5.53;1.40;;;9.40;99.90;;;;;;6022154;23;20355;-69
2023/04/11 07:39:39;;;;;;;6.05;1.63;;;9.40;99.90;;;;;;6025199;23;20248;-70
2023/04/11 07:42:06;;;;;;;2.90;1.52;;;9.50;99.90;;;;;;6018386;23;20217;-70
2023/04/11 07:44:35;;;;;;;4.65;1.50;;;9.60;99.90;;;;;;6024931;23;20559;-70
2023/04/11 07:47:03;;;;;;;3.45;1.75;;;9.90;99.90;;;;;;6017978;23;20519;-70
2023/04/11 07:49:30;;;;;;;2.42;1.50;;;9.80;99.90;;;;;;6024257;23;20201;-71
2023/04/11 07:51:57;;;;;;;3.38;1.48;;;9.90;99.90;;;;;;6029908;23;20208;-71
2023/04/11 07:54:27;;;;;;;2.50;1.33;;;10.00;99.90;;;;;;6028025;23;20220;-71
2023/04/11 07:56:55;;;;;;;4.78;1.60;;;10.10;99.90;;;;;;6030057;23;20200;-71
2023/04/11 07:59:23;;;;;;;5.07;1.58;;;10.30;99.90;;;;;;6019042;23;20216;-70
2023/04/11 08:02:00;;;;;;;3.83;1.50;;;10.40;99.90;;;;;;6017328;23;20232;-70
2023/04/11 08:04:31;;;;;;;3.10;1.30;;;10.50;99.90;;;;;;6028735;23;20275;-69
2023/04/11 08:06:58;;;;;;;4.60;1.73;;;10.80;99.90;;;;;;6018116;23;20244;-70
2023/04/11 08:09:26;;;;;;;3.28;1.23;;;10.90;99.90;;;;;;6030161;23;20827;-70
2023/04/11 08:11:53;;;;;;;2.63;1.33;;;10.90;99.90;;;;;;6021184;23;20288;-69
2023/04/11 08:14:20;;;;;;;3.55;1.67;;;10.80;99.90;;;;;;6029154;23;20193;-69
2023/04/11 08:16:47;;;;;;;3.95;1.52;;;10.80;99.90;;;;;;6022426;23;20194;-70
2023/04/11 08:19:16;;;;;;;2.90;1.10;;;10.80;99.90;;;;;;6026083;23;20345;-69
2023/04/11 08:21:43;;;;;;;8.52;3.17;;;10.90;99.90;;;;;;6025759;23;20213;-71
2023/04/11 08:24:10;;;;;;;5.25;1.60;;;10.90;99.90;;;;;;6022856;23;20190;-70
2023/04/11 08:26:37;;;;;;;1.52;1.23;;;10.90;99.90;;;;;;6024490;23;20186;-69
2023/04/11 08:29:04;;;;;;;3.10;1.60;;;10.90;99.90;;;;;;6024988;23;20201;-70
2023/04/11 08:31:32;;;;;;;4.75;1.40;;;11.00;99.90;;;;;;6024655;23;20272;-70
2023/04/11 08:33:59;;;;;;;2.38;1.17;;;11.20;99.90;;;;;;6024584;23;20193;-70
2023/04/11 08:36:27;;;;;;;3.88;1.50;;;11.30;99.90;;;;;;6026256;23;20545;-70
2023/04/11 08:38:55;;;;;;;5.50;1.75;;;11.60;99.90;;;;;;6017530;23;20208;-69
2023/04/11 08:41:23;;;;;;;4.15;1.50;;;11.60;99.90;;;;;;6025026;23;20186;-70
2023/04/11 08:43:50;;;;;;;4.90;1.42;;;11.40;99.90;;;;;;6026071;23;20194;-70
2023/04/11 08:46:17;;;;;;;3.40;1.83;;;11.40;99.90;;;;;;6025826;23;20232;-69
2023/04/11 08:48:44;;;;;;;1.58;0.95;;;11.70;99.90;;;;;;6023811;23;20676;-70
2023/04/11 08:51:13;;;;;;;2.47;1.23;;;11.90;99.90;;;;;;6022147;23;20609;-70
2023/04/11 08:53:42;;;;;;;6.03;1.57;;;12.00;99.90;;;;;;6011755;23;20189;-70
2023/04/11 08:56:15;;;;;;;3.97;1.50;;;12.00;99.90;;;;;;6016262;23;20951;-69
2023/04/11 08:58:42;;;;;;;3.77;1.70;;;12.10;99.90;;;;;;6025105;23;20507;-70
2023/04/11 09:01:31;;;;;;;3.30;1.60;;;12.20;99.90;;;;;;6027135;23;20491;-70
2023/04/11 09:04:00;;;;;;;3.23;1.63;;;12.20;99.90;;;;;;6013978;23;20441;-70
2023/04/11 09:06:29;;;;;;;2.60;1.50;;;12.40;99.90;;;;;;6026381;23;20528;-70
2023/04/11 09:08:59;;;;;;;5.22;2.03;;;12.50;99.90;;;;;;6033612;23;20430;-70
2023/04/11 09:11:26;;;;;;;3.10;1.30;;;12.10;99.90;;;;;;6018422;23;20256;-69
2023/04/11 09:14:06;;;;;;;3.28;1.30;;;12.20;99.90;;;;;;6029889;23;20189;-70
2023/04/11 09:16:34;;;;;;;4.55;1.88;;;12.00;99.90;;;;;;6020244;23;20256;-71
2023/04/11 09:19:01;;;;;;;4.03;1.47;;;12.20;99.90;;;;;;6025417;23;20189;-78
2023/04/11 09:21:28;;;;;;;7.45;2.22;;;12.50;99.90;;;;;;6016941;23;20436;-70
2023/04/11 09:24:15;;;;;;;4.87;1.37;;;12.60;99.90;;;;;;6026263;23;20688;-70
2023/04/11 09:26:42;;;;;;;3.53;1.50;;;12.40;99.90;;;;;;6029794;23;20530;-69
2023/04/11 09:29:09;;;;;;;4.40;1.70;;;12.20;99.90;;;;;;6029292;23;20244;-70
2023/04/11 09:31:41;;;;;;;3.75;1.30;;;12.10;99.90;;;;;;6028696;23;20276;-71
2023/04/11 09:34:08;;;;;;;2.40;1.20;;;12.50;99.90;;;;;;6025893;23;20662;-70
2023/04/11 09:36:35;;;;;;;4.40;1.40;;;13.10;99.90;;;;;;6031308;23;20434;-71
2023/04/11 09:39:17;;;;;;;5.27;1.63;;;13.50;99.90;;;;;;6017982;23;20434;-71
2023/04/11 09:41:45;;;;;;;2.07;1.10;;;13.30;99.90;;;;;;6017392;23;20493;-71
2023/04/11 09:44:13;;;;;;;5.23;1.73;;;13.40;99.90;;;;;;6027573;23;20917;-71
2023/04/11 09:46:58;;;;;;;4.00;1.70;;;13.20;99.90;;;;;;6024580;23;20450;-71
2023/04/11 09:49:25;;;;;;;4.40;1.80;;;13.30;99.90;;;;;;6022755;23;20538;-71
2023/04/11 09:51:53;;;;;;;4.03;1.40;;;13.30;99.90;;;;;;6024619;23;20485;-71
2023/04/11 09:54:22;;;;;;;5.03;1.93;;;13.30;99.90;;;;;;6023957;23;20448;-71
2023/04/11 09:56:50;;;;;;;3.67;1.40;;;13.30;99.90;;;;;;6023852;23;20443;-70
2023/04/11 09:59:21;;;;;;;3.27;1.60;;;13.00;99.90;;;;;;6019737;23;20461;-70
2023/04/11 10:01:50;;;;;;;6.83;1.43;;;13.00;99.90;;;;;;6012570;23;21266;-71
2023/04/11 10:04:19;;;;;;;2.80;1.60;;;13.30;99.90;;;;;;6027376;23;20513;-70
2023/04/11 10:06:56;;;;;;;4.77;1.67;;;13.50;99.90;;;;;;6024929;23;20443;-70
2023/04/11 10:09:26;;;;;;;3.13;1.17;;;13.80;99.90;;;;;;6023801;23;20441;-71
2023/04/11 10:11:53;;;;;;;3.63;1.47;;;13.70;99.90;;;;;;6022925;23;20456;-69
2023/04/11 10:14:44;;;;;;;2.33;1.13;;;13.50;99.90;;;;;;6029333;23;20849;-70
2023/04/11 10:17:14;;;;;;;2.10;1.10;;;13.60;99.90;;;;;;6024763;23;20459;-70
2023/04/11 10:19:41;;;;;;;6.03;1.60;;;13.80;99.90;;;;;;6027957;23;20463;-70
2023/04/11 10:22:08;;;;;;;2.83;1.20;;;13.80;99.90;;;;;;6031118;23;20532;-70
2023/04/11 10:24:37;;;;;;;3.67;1.13;;;13.80;99.90;;;;;;6029839;23;20444;-69
2023/04/11 10:27:06;;;;;;;4.33;1.30;;;13.90;99.90;;;;;;6024852;23;20498;-69
2023/04/11 10:29:47;;;;;;;4.20;1.40;;;13.70;99.90;;;;;;6029394;23;20521;-70
2023/04/11 10:32:21;;;;;;;2.10;1.10;;;13.50;99.90;;;;;;6021042;23;20465;-71
2023/04/11 10:35:19;;;;;;;3.13;1.20;;;13.40;99.90;;;;;;6024957;23;20438;-70
2023/04/11 10:37:47;;;;;;;4.40;1.50;;;13.50;99.90;;;;;;6030200;23;20513;-70
2023/04/11 10:40:19;;;;;;;2.53;1.10;;;13.50;99.90;;;;;;6032505;23;20462;-71
2023/04/11 10:42:48;;;;;;;4.03;1.47;;;13.00;99.90;;;;;;6027469;23;20547;-70
2023/04/11 10:45:20;;;;;;;2.93;1.23;;;12.90;99.90;;;;;;6026828;23;20441;-71
2023/04/11 10:48:02;;;;;;;3.97;1.50;;;13.00;99.90;;;;;;6021310;23;20442;-70
2023/04/11 10:50:39;;;;;;;2.93;1.57;;;13.30;99.90;;;;;;6028918;23;20439;-71
2023/04/11 10:53:08;;;;;;;2.57;1.73;;;13.50;99.90;;;;;;6032334;23;20462;-70
2023/04/11 10:55:45;;;;;;;2.67;1.40;;;13.70;99.90;;;;;;6020167;23;20442;-69
2023/04/11 10:58:15;;;;;;;3.77;1.47;;;13.60;99.90;;;;;;6026841;23;20576;-70
2023/04/11 11:01:25;;;;;;;2.83;1.30;;;13.50;99.90;;;;;;6027718;23;20472;-69
2023/04/11 11:03:55;;;;;;;3.10;1.60;;;13.30;99.90;;;;;;6027710;23;20447;-69
2023/04/11 11:06:23;;;;;;;3.77;1.50;;;13.50;99.90;;;;;;6028503;23;20436;-69
2023/04/11 11:08:50;;;;;;;3.17;1.40;;;13.60;99.90;;;;;;6022939;23;20443;-70
2023/04/11 11:11:19;;;;;;;2.37;1.30;;;13.60;99.90;;;;;;6029671;23;20452;-70
2023/04/11 11:13:49;;;;;;;2.23;1.03;;;13.90;99.90;;;;;;6028292;23;20440;-70
2023/04/11 11:16:18;;;;;;;2.60;1.30;;;14.60;99.90;;;;;;6029247;23;20444;-70
2023/04/11 11:18:47;;;;;;;3.03;1.30;;;15.20;99.90;;;;;;6030730;23;21227;-69
2023/04/11 11:21:18;;;;;;;3.60;1.70;;;15.80;99.70;;;;;;6027668;23;20468;-70
2023/04/11 11:23:59;;;;;;;7.70;1.60;;;16.40;99.30;;;;;;6031666;23;20523;-70
2023/04/11 11:26:38;;;;;;;3.23;1.13;;;16.80;98.20;;;;;;6031538;23;20498;-70
2023/04/11 11:29:05;;;;;;;4.53;1.23;;;16.80;97.40;;;;;;6026810;23;20444;-68
2023/04/11 11:31:40;;;;;;;2.00;1.30;;;16.30;96.00;;;;;;6028608;23;20491;-70
2023/04/11 11:34:09;;;;;;;2.70;1.37;;;16.10;96.20;;;;;;6029089;23;20443;-70
2023/04/11 11:36:39;;;;;;;3.07;1.43;;;16.20;96.40;;;;;;6029140;23;20464;-69
2023/04/11 11:39:06;;;;;;;2.40;1.40;;;16.40;95.60;;;;;;6030156;23;20431;-69
2023/04/11 11:41:34;;;;;;;3.57;1.40;;;16.60;96.10;;;;;;6026472;23;20503;-69
2023/04/11 11:44:03;;;;;;;2.80;1.27;;;16.90;95.60;;;;;;6028120;23;20460;-70
2023/04/11 11:46:32;;;;;;;2.03;1.20;;;16.90;94.20;;;;;;6025763;23;20873;-69
2023/04/11 11:49:01;;;;;;;3.00;1.17;;;17.00;94.00;;;;;;6031169;23;20486;-69
2023/04/11 11:51:40;;;;;;;3.37;1.30;;;16.80;93.40;;;;;;6029970;23;20548;-70
2023/04/11 11:54:08;;;;;;;2.20;1.13;;;16.90;93.50;;;;;;6031107;23;20439;-70
2023/04/11 11:56:36;;;;;;;2.00;1.43;;;17.30;93.20;;;;;;6016992;23;20456;-70
2023/04/11 11:59:04;;;;;;;2.87;1.50;;;17.20;92.40;;;;;;6030599;23;20440;-70
2023/04/11 12:01:32;;;;;;;2.93;1.37;;;16.70;93.00;;;;;;6028927;23;20499;-69
2023/04/11 12:04:00;;;;;;;4.57;1.60;;;15.90;93.80;;;;;;6027528;23;20432;-69
2023/04/11 12:06:30;;;;;;;4.80;1.40;;;15.30;94.90;;;;;;6023549;23;20788;-69
2023/04/11 12:09:02;;;;;;;3.90;1.60;;;14.90;95.00;;;;;;6026756;23;20781;-69
2023/04/11 12:11:36;;;;;;;4.20;1.43;;;14.80;95.70;;;;;;6025692;23;20494;-68
2023/04/11 12:14:05;;;;;;;3.80;1.40;;;14.70;96.50;;;;;;6026844;23;22095;-68
2023/04/11 12:16:32;;;;;;;6.30;1.77;;;14.60;95.70;;;;;;6028284;23;20435;-78
2023/04/11 12:19:00;;;;;;;2.40;1.27;;;14.40;95.80;;;;;;6023235;23;20648;-81
2023/04/11 12:21:27;;;;;;;2.23;1.20;;;14.30;96.10;;;;;;6020220;23;20557;-68
2023/04/11 12:23:54;;;;;;;3.33;1.50;;;14.50;95.20;;;;;;6026407;23;20451;-70
2023/04/11 12:26:23;;;;;;;4.27;1.60;;;14.60;94.70;;;;;;6012690;23;20806;-70
2023/04/11 12:28:51;;;;;;;2.20;1.20;;;14.20;94.50;;;;;;6023611;23;20480;-68
2023/04/11 12:31:20;;;;;;;4.87;1.50;;;13.90;94.80;;;;;;6031828;23;20465;-70
2023/04/11 12:33:47;;;;;;;3.17;1.20;;;13.90;95.40;;;;;;6030933;23;20435;-71
2023/04/11 12:36:14;;;;;;;2.77;1.30;;;14.00;95.10;;;;;;6023797;23;20444;-69
2023/04/11 12:38:42;;;;;;;3.90;1.43;;;14.20;94.30;;;;;;6029659;23;20439;-69
2023/04/11 12:41:09;;;;;;;1.67;1.20;;;14.50;94.00;;;;;;6025247;23;20509;-69
2023/04/11 12:43:36;;;;;;;4.10;1.60;;;14.70;93.50;;;;;;6018675;23;20444;-69
2023/04/11 12:46:04;;;;;;;2.60;1.00;;;14.80;92.90;;;;;;6030421;23;20937;-69
2023/04/11 12:48:33;;;;;;;2.80;1.27;;;14.90;93.40;;;;;;6032667;23;20453;-69
2023/04/11 12:51:00;;;;;;;3.40;1.30;;;15.10;93.60;;;;;;6028016;23;20439;-70
2023/04/11 12:53:27;;;;;;;3.73;1.37;;;15.20;93.30;;;;;;6028064;23;20440;-69
2023/04/11 12:55:55;;;;;;;2.97;1.20;;;15.20;92.80;;;;;;6020881;23;20491;-70
2023/04/11 12:58:22;;;;;;;3.60;1.70;;;15.30;92.80;;;;;;6025953;23;20569;-70